»·PEaware :: N134RX KSMX-KBFL

N134RX :: KSMX-KBFL

FLIGHT INFORMATION

Flight Status: Arrived
Operator: Privately registered:
United States
More flights under this callsign
Pilot: Christopher M. (23411)
Aircraft: CESSNA 172 SKYHAWK
(C172)
More flights by this aircraft type
Origin: KSMX Santa Maria Pub/Capt Hancock
United States
Destination: KBFL Meadows
United States
More flights between these airports :: More routes between these airports
Route: +
File this flight plan on PilotEdge
Remarks: CAT5
Altitude:
(Current/Filed)
0ft
Speed:
(Current/Filed)
0kts
Departed: 09-Feb-19 02:13 PM
Arrived: 09-Feb-19 03:00 PM
Distance/Time
Traveled:
76nm/0:47
Distance/Time
To Go:
Arrived

Flight Plot

Page will automatically refresh every two minutes.


Map Options




Map Legend


Flown Route
Filed Route
Departure Airport
Arrival Airport
Navaid (VOR, NDB)
Fix

Horizontal Profiles

Position Reports

Time Latitude Longitude Heading Altitude Ground
Speed
09-Feb-19 14:06 34.899009 -120.450260 174 265ft 12kts
09-Feb-19 14:07 34.895078 -120.446114 137 265ft 23kts
09-Feb-19 14:08 34.893426 -120.445217 183 265ft 0kts
09-Feb-19 14:09 34.893426 -120.445217 183 265ft 0kts
09-Feb-19 14:10 34.893426 -120.445217 183 265ft 0kts
09-Feb-19 14:11 34.893426 -120.445217 183 265ft 0kts
09-Feb-19 14:12 34.895280 -120.449016 315 265ft 71kts
09-Feb-19 14:13 34.911526 -120.465649 318 1244ft 84kts
09-Feb-19 14:14 34.932344 -120.484954 347 1746ft 103kts
09-Feb-19 14:15 34.961119 -120.472393 11 2162ft 110kts
09-Feb-19 14:16 34.988043 -120.452216 19 2385ft 121kts
09-Feb-19 14:17 35.020115 -120.437849 1 2381ft 121kts
09-Feb-19 14:18 35.051330 -120.445951 330 2380ft 114kts
09-Feb-19 14:19 35.080100 -120.451232 58 2530ft 102kts
09-Feb-19 14:20 35.085427 -120.417938 71 3025ft 100kts
09-Feb-19 14:21 35.092531 -120.384715 66 3514ft 101kts
09-Feb-19 14:22 35.100772 -120.351637 63 3998ft 103kts
09-Feb-19 14:23 35.109983 -120.316451 63 4500ft 112kts
09-Feb-19 14:24 35.118686 -120.283263 61 5441ft 91kts
09-Feb-19 14:25 35.126830 -120.260238 21 6211ft 65kts
09-Feb-19 14:26 35.134070 -120.232009 67 6654ft 113kts
09-Feb-19 14:27 35.143313 -120.191940 66 6965ft 131kts
09-Feb-19 14:28 35.154234 -120.148914 65 7267ft 133kts
09-Feb-19 14:29 35.165546 -120.105724 65 7492ft 141kts
09-Feb-19 14:30 35.177974 -120.058223 65 7490ft 147kts
09-Feb-19 14:31 35.189897 -120.012398 65 7490ft 139kts
09-Feb-19 14:32 35.201606 -119.967629 65 7490ft 138kts
09-Feb-19 14:33 35.213274 -119.922939 65 7490ft 138kts
09-Feb-19 14:34 35.224938 -119.878177 65 7491ft 138kts
09-Feb-19 14:35 35.236607 -119.833315 65 7491ft 138kts
09-Feb-19 14:36 35.248523 -119.787498 65 7273ft 147kts
09-Feb-19 14:37 35.260658 -119.740402 66 6976ft 135kts
09-Feb-19 14:38 35.271740 -119.697585 64 6980ft 129kts
09-Feb-19 14:39 35.282686 -119.655373 64 6980ft 129kts
09-Feb-19 14:40 35.293464 -119.612997 65 6980ft 128kts
09-Feb-19 14:41 35.304037 -119.571151 64 6980ft 125kts
09-Feb-19 14:42 35.314469 -119.530486 64 6980ft 123kts
09-Feb-19 14:43 35.324685 -119.490592 63 6980ft 119kts
09-Feb-19 14:44 35.334558 -119.452069 63 6980ft 115kts
09-Feb-19 14:45 35.344115 -119.414648 62 6980ft 111kts
09-Feb-19 14:46 35.353900 -119.376172 63 6400ft 116kts
09-Feb-19 14:47 35.363561 -119.338296 64 5704ft 116kts
09-Feb-19 14:48 35.373531 -119.299042 64 5012ft 121kts
09-Feb-19 14:49 35.383054 -119.261504 67 4313ft 107kts
09-Feb-19 14:50 35.391646 -119.227647 68 3614ft 102kts
09-Feb-19 14:51 35.400781 -119.191643 67 2921ft 117kts
09-Feb-19 14:52 35.410432 -119.153441 70 2223ft 115kts
09-Feb-19 14:53 35.421854 -119.121598 67 2051ft 98kts
09-Feb-19 14:54 35.431963 -119.089724 84 1745ft 105kts
09-Feb-19 14:55 35.417531 -119.060794 138 1479ft 98kts
09-Feb-19 14:56 35.400362 -119.036714 73 1372ft 81kts
09-Feb-19 14:57 35.417425 -119.036626 322 853ft 78kts
09-Feb-19 14:58 35.432234 -119.054252 317 509ft 65kts
09-Feb-19 14:59 35.436338 -119.057333 91 493ft 9kts
09-Feb-19 15:00 35.433262 -119.053217 137 493ft 14kts
09-Feb-19 15:01 35.429850 -119.049157 135 489ft 16kts
09-Feb-19 15:02 35.431124 -119.045820 4 499ft 9kts
09-Feb-19 15:03 35.431231 -119.045826 351 499ft 0kts
09-Feb-19 15:04 35.431231 -119.045826 351 499ft 0kts

Navigation Log

Ident Type
Flight plan parsing failed, navigation log unavailable